AirNav   TITAN Aviation Fuels
 
 619 users online  

MU27 Woodfield Airpark Inc
Lockwood, Missouri, USA

GOING TO LOCKWOOD?


FAA INFORMATION EFFECTIVE 20 MAY 2021

Location

FAA Identifier: MU27
Lat/Long: 37-28-05.1650N 093-55-45.7740W
37-28.086083N 093-55.762900W
37.4681014,-93.9293817
(estimated)
Elevation: 1050 ft. / 320 m (estimated)
Variation: 05E (1985)
From city: 4 miles NE of LOCKWOOD, MO
Time zone: UTC -5 (UTC -6 during Standard Time)
Zip code: 65682

Airport Operations

Airport use: Private use. Permission required prior to landing
Activation date: 06/1981
Control tower: no
ARTCC: KANSAS CITY CENTER
FSS: COLUMBIA FLIGHT SERVICE STATION
Attendance: CONTINUOUS
Wind indicator: yes
Segmented circle: no

Nearby radio navigation aids

VOR radial/distance  VOR name  Freq  Var
SGFr279/29.2SPRINGFIELD VORTAC116.9004E

Airport Services

Runway Information

Runway E/W

Dimensions: 2600 x 120 ft. / 792 x 37 m
Surface: turf
RUNWAY E  RUNWAY W
Traffic pattern: leftleft
Obstructions: 4 ft. fencenone

Runway NE/SW

Dimensions: 1700 x 120 ft. / 518 x 37 m
Surface: turf
RUNWAY NE  RUNWAY SW
Traffic pattern: leftleft
Obstructions: 4 ft. fencenone

Airport Ownership and Management from official FAA records

Ownership: Privately-owned
Owner: WOODFIELD AIRPORT OWNERS LLC
22 WOODFIELD LN
GREENFIELD, MO 65661
Phone (253) 820-4967
Manager: DAVID KRAHN
22 WOODFIELD LN
GREENFIELD, MO 65661
Phone (253) 820-4967

Airport Operational Statistics

Aircraft based on the field: 2
Single engine airplanes: 2
    

Additional Remarks

FOR CD CTC SPRINGFIELD APCH AT 417-868-5620/5619.

Instrument Procedures

There are no published instrument procedures at MU27.

Some nearby airports with instrument procedures:

MO3 - Stockton Municipal Airport (13 nm NE)
KLLU - Lamar Municipal Airport (18 nm W)
M17 - Bolivar Municipal Airport (29 nm E)
KSGF - Springfield-Branson NTL Airport (29 nm SE)
KNVD - Nevada Municipal Airport (29 nm NW)
 
Loc | Ops | Rwys | IFR | FBO | Links
Com | Nav | Svcs | Stats | Notes
Area around MU27 (Woodfield Airpark Inc)
 
Road maps at: MapQuest Bing Google
 
Aerial photo
No photo
 
Sectional chart

 
Airport distance calculator
Flying to Woodfield Airpark Inc? Find the distance to fly.

From to MU27

Sunrise and sunset
Times for 13-Jun-2021
 Local
(UTC-5)
 Zulu
(UTC)
Morning civil twilight05:2410:24
Sunrise05:5510:55
Sunset20:3601:36
Evening civil twilight21:0702:07

Current date and time
Zulu (UTC)  14-Jun-2021 04:32:00
Local (UTC-5)  13-Jun-2021 23:32:00
 
METAR
KSGF 
30nm SE 
140252Z 04003KT 10SM CLR 22/17 A3004 RMK AO2 SLP160 T02220167 53016
KJLN 
33nm SW 
140253Z AUTO 00000KT 10SM CLR 23/18 A3004 RMK AO2 SLP161 T02280183 53016
KHFJ 
34nm S 
140335Z AUTO 00000KT 10SM CLR 21/17 A3006 RMK AO2
KPTS 
38nm W 
140355Z AUTO 00000KT 10SM CLR 21/20 A3004 RMK AO2 T02050195
TAF
KSGF 
30nm SE 
131720Z 1318/1418 01010KT P6SM SKC
KJLN 
33nm SW 
131720Z 1318/1418 05008KT P6SM SKC
NOTAMs
Click for the latest NOTAMs
NOTAMs are issued by the DoD/FAA and will open in a separate window not controlled by AirNav.

 

 
 

Would you like to see your business listed on this page?

 If your business provides an interesting product or service to pilots, flight crews, aircraft, or users of the Woodfield Airpark Inc, you should consider listing it here.  To start the listing process, click on the button below
 
Add a business
 

Other Pages about Woodfield Airpark Inc

Update a link
 
Copyright © AirNav, LLC. All rights reserved. Privacy Policy  Contact